sensor_id;sensor_type;location;lat;lon;timestamp;temperature;humidity
6666;DHT22;3369;49.906;8.598;2023-03-14T00:01:15;10.00;99.90
6666;DHT22;3369;49.906;8.598;2023-03-14T00:03:41;10.10;99.90
6666;DHT22;3369;49.906;8.598;2023-03-14T00:06:09;10.10;99.90
6666;DHT22;3369;49.906;8.598;2023-03-14T00:08:35;10.10;99.90
6666;DHT22;3369;49.906;8.598;2023-03-14T00:11:09;10.10;99.90
6666;DHT22;3369;49.906;8.598;2023-03-14T00:13:35;10.20;99.90
6666;DHT22;3369;49.906;8.598;2023-03-14T00:16:10;10.20;99.90
6666;DHT22;3369;49.906;8.598;2023-03-14T00:18:36;10.20;99.90
6666;DHT22;3369;49.906;8.598;2023-03-14T00:21:03;10.10;99.90
6666;DHT22;3369;49.906;8.598;2023-03-14T00:23:33;10.10;99.90
6666;DHT22;3369;49.906;8.598;2023-03-14T00:26:04;10.10;99.90
6666;DHT22;3369;49.906;8.598;2023-03-14T00:28:30;10.10;99.90
6666;DHT22;3369;49.906;8.598;2023-03-14T00:30:56;10.10;99.90
6666;DHT22;3369;49.906;8.598;2023-03-14T00:33:26;10.10;99.90
6666;DHT22;3369;49.906;8.598;2023-03-14T00:35:57;10.10;99.90
6666;DHT22;3369;49.906;8.598;2023-03-14T00:38:23;10.10;99.90
6666;DHT22;3369;49.906;8.598;2023-03-14T00:40:50;10.10;99.90
6666;DHT22;3369;49.906;8.598;2023-03-14T00:43:17;10.10;99.90
6666;DHT22;3369;49.906;8.598;2023-03-14T00:45:43;10.20;99.90
6666;DHT22;3369;49.906;8.598;2023-03-14T00:48:09;10.20;99.90
6666;DHT22;3369;49.906;8.598;2023-03-14T00:50:35;10.20;99.90
6666;DHT22;3369;49.906;8.598;2023-03-14T00:53:00;10.20;99.90
6666;DHT22;3369;49.906;8.598;2023-03-14T00:55:26;10.20;99.90
6666;DHT22;3369;49.906;8.598;2023-03-14T00:57:55;10.10;99.90
6666;DHT22;3369;49.906;8.598;2023-03-14T01:00:23;10.10;99.90
6666;DHT22;3369;49.906;8.598;2023-03-14T01:02:49;10.10;99.90
6666;DHT22;3369;49.906;8.598;2023-03-14T01:05:15;10.10;99.90
6666;DHT22;3369;49.906;8.598;2023-03-14T01:29:08;10.00;99.90
6666;DHT22;3369;49.906;8.598;2023-03-14T01:31:34;10.00;99.90
6666;DHT22;3369;49.906;8.598;2023-03-14T01:34:00;10.00;99.90
6666;DHT22;3369;49.906;8.598;2023-03-14T01:36:25;10.00;99.90
6666;DHT22;3369;49.906;8.598;2023-03-14T01:38:51;10.10;99.90
6666;DHT22;3369;49.906;8.598;2023-03-14T01:41:25;10.20;99.90
6666;DHT22;3369;49.906;8.598;2023-03-14T01:43:51;10.20;99.90
6666;DHT22;3369;49.906;8.598;2023-03-14T01:46:18;10.30;99.90
6666;DHT22;3369;49.906;8.598;2023-03-14T01:48:54;10.40;99.90
6666;DHT22;3369;49.906;8.598;2023-03-14T01:54:18;10.50;99.90
6666;DHT22;3369;49.906;8.598;2023-03-14T01:56:47;10.50;99.90
6666;DHT22;3369;49.906;8.598;2023-03-14T01:59:14;10.60;99.90
6666;DHT22;3369;49.906;8.598;2023-03-14T02:01:43;10.60;99.90
6666;DHT22;3369;49.906;8.598;2023-03-14T02:04:10;10.60;99.90
6666;DHT22;3369;49.906;8.598;2023-03-14T02:06:56;10.60;99.90
6666;DHT22;3369;49.906;8.598;2023-03-14T02:09:22;10.70;99.90
6666;DHT22;3369;49.906;8.598;2023-03-14T02:11:49;10.70;99.90
6666;DHT22;3369;49.906;8.598;2023-03-14T02:14:35;10.60;99.90
6666;DHT22;3369;49.906;8.598;2023-03-14T02:17:03;10.70;99.90
6666;DHT22;3369;49.906;8.598;2023-03-14T02:19:40;10.70;99.90
6666;DHT22;3369;49.906;8.598;2023-03-14T02:22:11;10.70;99.90
6666;DHT22;3369;49.906;8.598;2023-03-14T02:27:16;10.70;99.90
6666;DHT22;3369;49.906;8.598;2023-03-14T02:30:04;10.60;99.90
6666;DHT22;3369;49.906;8.598;2023-03-14T02:32:33;10.60;99.90
6666;DHT22;3369;49.906;8.598;2023-03-14T02:35:08;10.70;99.90
6666;DHT22;3369;49.906;8.598;2023-03-14T02:37:52;10.60;99.90
6666;DHT22;3369;49.906;8.598;2023-03-14T02:40:19;10.70;99.90
6666;DHT22;3369;49.906;8.598;2023-03-14T02:42:44;10.60;99.90
6666;DHT22;3369;49.906;8.598;2023-03-14T02:47:43;10.60;99.90
6666;DHT22;3369;49.906;8.598;2023-03-14T02:50:15;10.60;99.90
6666;DHT22;3369;49.906;8.598;2023-03-14T02:52:43;10.60;99.90
6666;DHT22;3369;49.906;8.598;2023-03-14T02:55:09;10.60;99.90
6666;DHT22;3369;49.906;8.598;2023-03-14T02:57:34;10.50;99.90
6666;DHT22;3369;49.906;8.598;2023-03-14T03:00:01;10.50;99.90
6666;DHT22;3369;49.906;8.598;2023-03-14T03:02:30;10.50;99.90
6666;DHT22;3369;49.906;8.598;2023-03-14T03:04:56;10.40;99.90
6666;DHT22;3369;49.906;8.598;2023-03-14T03:07:21;10.40;99.90
6666;DHT22;3369;49.906;8.598;2023-03-14T03:09:47;10.50;99.90
6666;DHT22;3369;49.906;8.598;2023-03-14T03:12:13;10.50;99.90
6666;DHT22;3369;49.906;8.598;2023-03-14T03:14:38;10.40;99.90
6666;DHT22;3369;49.906;8.598;2023-03-14T03:17:05;10.40;99.90
6666;DHT22;3369;49.906;8.598;2023-03-14T03:19:32;10.40;99.90
6666;DHT22;3369;49.906;8.598;2023-03-14T03:21:58;10.50;99.90
6666;DHT22;3369;49.906;8.598;2023-03-14T03:24:25;10.50;99.90
6666;DHT22;3369;49.906;8.598;2023-03-14T03:26:51;10.50;99.90
6666;DHT22;3369;49.906;8.598;2023-03-14T03:29:16;10.40;99.90
6666;DHT22;3369;49.906;8.598;2023-03-14T03:31:42;10.40;99.90
6666;DHT22;3369;49.906;8.598;2023-03-14T03:34:11;10.40;99.90
6666;DHT22;3369;49.906;8.598;2023-03-14T03:36:38;10.40;99.90
6666;DHT22;3369;49.906;8.598;2023-03-14T03:39:04;10.40;99.90
6666;DHT22;3369;49.906;8.598;2023-03-14T03:41:30;10.40;99.90
6666;DHT22;3369;49.906;8.598;2023-03-14T03:43:56;10.40;99.90
6666;DHT22;3369;49.906;8.598;2023-03-14T03:46:22;10.40;99.90
6666;DHT22;3369;49.906;8.598;2023-03-14T03:49:08;10.40;99.90
6666;DHT22;3369;49.906;8.598;2023-03-14T03:51:34;10.40;99.90
6666;DHT22;3369;49.906;8.598;2023-03-14T03:53:59;10.40;99.90
6666;DHT22;3369;49.906;8.598;2023-03-14T03:56:25;10.40;99.90
6666;DHT22;3369;49.906;8.598;2023-03-14T03:58:51;10.40;99.90
6666;DHT22;3369;49.906;8.598;2023-03-14T04:01:17;10.50;99.90
6666;DHT22;3369;49.906;8.598;2023-03-14T04:03:43;10.50;99.90
6666;DHT22;3369;49.906;8.598;2023-03-14T04:06:11;10.40;99.90
6666;DHT22;3369;49.906;8.598;2023-03-14T04:08:37;10.50;99.90
6666;DHT22;3369;49.906;8.598;2023-03-14T04:11:03;10.50;99.90
6666;DHT22;3369;49.906;8.598;2023-03-14T04:13:29;10.50;99.90
6666;DHT22;3369;49.906;8.598;2023-03-14T04:15:56;10.50;99.90
6666;DHT22;3369;49.906;8.598;2023-03-14T04:18:22;10.50;99.90
6666;DHT22;3369;49.906;8.598;2023-03-14T04:20:57;10.60;99.90
6666;DHT22;3369;49.906;8.598;2023-03-14T04:23:24;10.60;99.90
6666;DHT22;3369;49.906;8.598;2023-03-14T04:25:51;10.60;99.90
6666;DHT22;3369;49.906;8.598;2023-03-14T04:28:17;10.60;99.90
6666;DHT22;3369;49.906;8.598;2023-03-14T04:30:43;10.50;99.90
6666;DHT22;3369;49.906;8.598;2023-03-14T04:33:08;10.50;99.90
6666;DHT22;3369;49.906;8.598;2023-03-14T04:35:34;10.50;99.90
6666;DHT22;3369;49.906;8.598;2023-03-14T04:38:00;10.50;99.90
6666;DHT22;3369;49.906;8.598;2023-03-14T04:40:26;10.50;99.90
6666;DHT22;3369;49.906;8.598;2023-03-14T04:42:51;10.50;99.90
6666;DHT22;3369;49.906;8.598;2023-03-14T04:45:17;10.50;99.90
6666;DHT22;3369;49.906;8.598;2023-03-14T04:47:43;10.50;99.90
6666;DHT22;3369;49.906;8.598;2023-03-14T04:50:09;10.50;99.90
6666;DHT22;3369;49.906;8.598;2023-03-14T04:52:35;10.50;99.90
6666;DHT22;3369;49.906;8.598;2023-03-14T04:55:01;10.50;99.90
6666;DHT22;3369;49.906;8.598;2023-03-14T04:57:27;10.50;99.90
6666;DHT22;3369;49.906;8.598;2023-03-14T04:59:52;10.50;99.90
6666;DHT22;3369;49.906;8.598;2023-03-14T05:02:18;10.50;99.90
6666;DHT22;3369;49.906;8.598;2023-03-14T05:04:44;10.50;99.90
6666;DHT22;3369;49.906;8.598;2023-03-14T05:07:10;10.50;99.90
6666;DHT22;3369;49.906;8.598;2023-03-14T05:09:35;10.50;99.90
6666;DHT22;3369;49.906;8.598;2023-03-14T05:12:04;10.50;99.90
6666;DHT22;3369;49.906;8.598;2023-03-14T05:14:31;10.50;99.90
6666;DHT22;3369;49.906;8.598;2023-03-14T05:16:56;10.60;99.90
6666;DHT22;3369;49.906;8.598;2023-03-14T05:19:22;10.60;99.90
6666;DHT22;3369;49.906;8.598;2023-03-14T05:21:48;10.50;99.90
6666;DHT22;3369;49.906;8.598;2023-03-14T05:24:14;10.50;99.90
6666;DHT22;3369;49.906;8.598;2023-03-14T05:26:39;10.50;99.90
6666;DHT22;3369;49.906;8.598;2023-03-14T05:29:05;10.50;99.90
6666;DHT22;3369;49.906;8.598;2023-03-14T05:31:31;10.50;99.90
6666;DHT22;3369;49.906;8.598;2023-03-14T05:33:57;10.50;99.90
6666;DHT22;3369;49.906;8.598;2023-03-14T05:36:22;10.50;99.90
6666;DHT22;3369;49.906;8.598;2023-03-14T05:38:48;10.50;99.90
6666;DHT22;3369;49.906;8.598;2023-03-14T05:41:14;10.40;99.90
6666;DHT22;3369;49.906;8.598;2023-03-14T05:43:39;10.50;99.90
6666;DHT22;3369;49.906;8.598;2023-03-14T05:46:05;10.60;99.90
6666;DHT22;3369;49.906;8.598;2023-03-14T05:48:31;10.50;99.90
6666;DHT22;3369;49.906;8.598;2023-03-14T05:50:57;10.50;99.90
6666;DHT22;3369;49.906;8.598;2023-03-14T05:53:25;10.60;99.90
6666;DHT22;3369;49.906;8.598;2023-03-14T05:55:54;10.60;99.90
6666;DHT22;3369;49.906;8.598;2023-03-14T05:58:20;10.60;99.90
6666;DHT22;3369;49.906;8.598;2023-03-14T06:00:46;10.60;99.90
6666;DHT22;3369;49.906;8.598;2023-03-14T06:03:12;10.60;99.90
6666;DHT22;3369;49.906;8.598;2023-03-14T06:05:40;10.50;99.90
6666;DHT22;3369;49.906;8.598;2023-03-14T06:08:06;10.50;99.90
6666;DHT22;3369;49.906;8.598;2023-03-14T06:10:32;10.40;99.90
6666;DHT22;3369;49.906;8.598;2023-03-14T06:12:59;10.40;99.90
6666;DHT22;3369;49.906;8.598;2023-03-14T06:15:25;10.40;99.90
6666;DHT22;3369;49.906;8.598;2023-03-14T06:17:51;10.50;99.90
6666;DHT22;3369;49.906;8.598;2023-03-14T06:20:16;10.50;99.90
6666;DHT22;3369;49.906;8.598;2023-03-14T06:22:42;10.50;99.90
6666;DHT22;3369;49.906;8.598;2023-03-14T06:25:08;10.50;99.90
6666;DHT22;3369;49.906;8.598;2023-03-14T06:27:34;10.40;99.90
6666;DHT22;3369;49.906;8.598;2023-03-14T06:30:00;10.50;99.90
6666;DHT22;3369;49.906;8.598;2023-03-14T06:32:26;10.50;99.90
6666;DHT22;3369;49.906;8.598;2023-03-14T06:34:51;10.40;99.90
6666;DHT22;3369;49.906;8.598;2023-03-14T06:37:18;10.40;99.90
6666;DHT22;3369;49.906;8.598;2023-03-14T06:39:44;10.40;99.90
6666;DHT22;3369;49.906;8.598;2023-03-14T06:42:10;10.40;99.90
6666;DHT22;3369;49.906;8.598;2023-03-14T06:44:35;10.50;99.90
6666;DHT22;3369;49.906;8.598;2023-03-14T06:47:01;10.40;99.90
6666;DHT22;3369;49.906;8.598;2023-03-14T06:49:27;10.40;99.90
6666;DHT22;3369;49.906;8.598;2023-03-14T07:12:39;10.30;99.90
6666;DHT22;3369;49.906;8.598;2023-03-14T07:15:05;10.30;99.90
6666;DHT22;3369;49.906;8.598;2023-03-14T07:17:31;10.30;99.90
6666;DHT22;3369;49.906;8.598;2023-03-14T07:19:56;10.30;99.90
6666;DHT22;3369;49.906;8.598;2023-03-14T07:22:22;10.30;99.90
6666;DHT22;3369;49.906;8.598;2023-03-14T07:24:48;10.40;99.90
6666;DHT22;3369;49.906;8.598;2023-03-14T07:27:13;10.40;99.90
6666;DHT22;3369;49.906;8.598;2023-03-14T07:29:39;10.40;99.90
6666;DHT22;3369;49.906;8.598;2023-03-14T07:32:05;10.40;99.90
6666;DHT22;3369;49.906;8.598;2023-03-14T07:34:30;10.40;99.90
6666;DHT22;3369;49.906;8.598;2023-03-14T07:36:56;10.40;99.90
6666;DHT22;3369;49.906;8.598;2023-03-14T07:39:22;10.40;99.90
6666;DHT22;3369;49.906;8.598;2023-03-14T07:41:47;10.40;99.90
6666;DHT22;3369;49.906;8.598;2023-03-14T07:44:13;10.40;99.90
6666;DHT22;3369;49.906;8.598;2023-03-14T07:46:39;10.40;99.90
6666;DHT22;3369;49.906;8.598;2023-03-14T07:49:05;10.40;99.90
6666;DHT22;3369;49.906;8.598;2023-03-14T07:51:30;10.40;99.90
6666;DHT22;3369;49.906;8.598;2023-03-14T07:53:56;10.50;99.90
6666;DHT22;3369;49.906;8.598;2023-03-14T07:56:22;10.50;99.90
6666;DHT22;3369;49.906;8.598;2023-03-14T07:58:47;10.50;99.90
6666;DHT22;3369;49.906;8.598;2023-03-14T08:01:13;10.50;99.90
6666;DHT22;3369;49.906;8.598;2023-03-14T08:03:39;10.50;99.90
6666;DHT22;3369;49.906;8.598;2023-03-14T08:06:06;10.60;99.90
6666;DHT22;3369;49.906;8.598;2023-03-14T08:08:32;10.60;99.90
6666;DHT22;3369;49.906;8.598;2023-03-14T08:11:03;10.60;99.90
6666;DHT22;3369;49.906;8.598;2023-03-14T08:13:29;10.60;99.90
6666;DHT22;3369;49.906;8.598;2023-03-14T08:15:55;10.50;99.90
6666;DHT22;3369;49.906;8.598;2023-03-14T08:18:21;10.50;99.90
6666;DHT22;3369;49.906;8.598;2023-03-14T08:20:47;10.50;99.90
6666;DHT22;3369;49.906;8.598;2023-03-14T08:23:12;10.60;99.90
6666;DHT22;3369;49.906;8.598;2023-03-14T08:25:38;10.60;99.90
6666;DHT22;3369;49.906;8.598;2023-03-14T08:28:04;10.60;99.90
6666;DHT22;3369;49.906;8.598;2023-03-14T08:30:30;10.70;99.90
6666;DHT22;3369;49.906;8.598;2023-03-14T08:32:57;10.70;99.90
6666;DHT22;3369;49.906;8.598;2023-03-14T08:35:24;10.80;99.90
6666;DHT22;3369;49.906;8.598;2023-03-14T08:37:53;10.80;99.90
6666;DHT22;3369;49.906;8.598;2023-03-14T08:40:19;10.80;99.90
6666;DHT22;3369;49.906;8.598;2023-03-14T08:42:45;10.90;99.90
6666;DHT22;3369;49.906;8.598;2023-03-14T08:45:14;11.00;99.90
6666;DHT22;3369;49.906;8.598;2023-03-14T08:47:44;11.10;99.90
6666;DHT22;3369;49.906;8.598;2023-03-14T08:50:10;11.10;99.90
6666;DHT22;3369;49.906;8.598;2023-03-14T08:52:46;11.30;99.90
6666;DHT22;3369;49.906;8.598;2023-03-14T08:55:11;11.30;99.90
6666;DHT22;3369;49.906;8.598;2023-03-14T08:57:37;11.40;99.90
6666;DHT22;3369;49.906;8.598;2023-03-14T09:00:04;11.60;99.90
6666;DHT22;3369;49.906;8.598;2023-03-14T09:02:35;11.70;99.90
6666;DHT22;3369;49.906;8.598;2023-03-14T09:05:01;11.70;99.90
6666;DHT22;3369;49.906;8.598;2023-03-14T09:07:27;11.70;99.90
6666;DHT22;3369;49.906;8.598;2023-03-14T09:09:53;11.70;99.90
6666;DHT22;3369;49.906;8.598;2023-03-14T09:12:19;11.60;99.90
6666;DHT22;3369;49.906;8.598;2023-03-14T09:14:44;11.60;99.90
6666;DHT22;3369;49.906;8.598;2023-03-14T09:17:10;11.60;99.90
6666;DHT22;3369;49.906;8.598;2023-03-14T09:19:36;11.60;99.90
6666;DHT22;3369;49.906;8.598;2023-03-14T09:22:02;11.70;99.90
6666;DHT22;3369;49.906;8.598;2023-03-14T09:24:28;11.70;99.90
6666;DHT22;3369;49.906;8.598;2023-03-14T09:27:00;11.70;99.90
6666;DHT22;3369;49.906;8.598;2023-03-14T09:29:26;11.70;99.90
6666;DHT22;3369;49.906;8.598;2023-03-14T09:31:52;11.70;99.90
6666;DHT22;3369;49.906;8.598;2023-03-14T09:34:17;11.70;99.90
6666;DHT22;3369;49.906;8.598;2023-03-14T09:36:44;11.70;99.90
6666;DHT22;3369;49.906;8.598;2023-03-14T09:39:10;11.70;99.90
6666;DHT22;3369;49.906;8.598;2023-03-14T09:41:40;11.80;99.90
6666;DHT22;3369;49.906;8.598;2023-03-14T09:44:24;11.80;99.90
6666;DHT22;3369;49.906;8.598;2023-03-14T09:46:53;11.80;99.90
6666;DHT22;3369;49.906;8.598;2023-03-14T09:49:21;11.80;99.90
6666;DHT22;3369;49.906;8.598;2023-03-14T09:51:52;11.80;99.90
6666;DHT22;3369;49.906;8.598;2023-03-14T09:55:01;11.70;99.90
6666;DHT22;3369;49.906;8.598;2023-03-14T09:57:25;11.70;99.90
6666;DHT22;3369;49.906;8.598;2023-03-14T09:59:54;11.70;99.90
6666;DHT22;3369;49.906;8.598;2023-03-14T10:02:24;11.70;99.90
6666;DHT22;3369;49.906;8.598;2023-03-14T10:04:52;11.60;99.90
6666;DHT22;3369;49.906;8.598;2023-03-14T10:07:30;11.60;99.90
6666;DHT22;3369;49.906;8.598;2023-03-14T10:09:56;11.60;99.90
6666;DHT22;3369;49.906;8.598;2023-03-14T10:12:33;11.60;99.90
6666;DHT22;3369;49.906;8.598;2023-03-14T10:15:05;11.60;99.90
6666;DHT22;3369;49.906;8.598;2023-03-14T10:17:39;11.60;99.90
6666;DHT22;3369;49.906;8.598;2023-03-14T10:20:05;11.60;99.90
6666;DHT22;3369;49.906;8.598;2023-03-14T10:22:32;11.60;99.90
6666;DHT22;3369;49.906;8.598;2023-03-14T10:25:26;11.60;99.90
6666;DHT22;3369;49.906;8.598;2023-03-14T10:27:52;11.60;99.90
6666;DHT22;3369;49.906;8.598;2023-03-14T10:30:34;11.60;99.90
6666;DHT22;3369;49.906;8.598;2023-03-14T10:33:12;11.60;99.90
6666;DHT22;3369;49.906;8.598;2023-03-14T10:35:45;11.50;99.90
6666;DHT22;3369;49.906;8.598;2023-03-14T10:38:16;11.50;99.90
6666;DHT22;3369;49.906;8.598;2023-03-14T10:40:48;11.40;99.90
6666;DHT22;3369;49.906;8.598;2023-03-14T10:43:18;11.40;99.90
6666;DHT22;3369;49.906;8.598;2023-03-14T10:46:02;11.40;99.90
6666;DHT22;3369;49.906;8.598;2023-03-14T10:48:35;11.40;99.90
6666;DHT22;3369;49.906;8.598;2023-03-14T10:53:45;11.30;99.90
6666;DHT22;3369;49.906;8.598;2023-03-14T10:56:17;11.30;99.90
6666;DHT22;3369;49.906;8.598;2023-03-14T10:58:45;11.30;99.90
6666;DHT22;3369;49.906;8.598;2023-03-14T11:01:41;11.30;99.90
6666;DHT22;3369;49.906;8.598;2023-03-14T11:04:43;11.30;99.90
6666;DHT22;3369;49.906;8.598;2023-03-14T11:10:07;11.30;99.90
6666;DHT22;3369;49.906;8.598;2023-03-14T11:30:30;11.10;99.90
6666;DHT22;3369;49.906;8.598;2023-03-14T11:33:14;11.00;99.90
6666;DHT22;3369;49.906;8.598;2023-03-14T11:36:13;10.90;99.90
6666;DHT22;3369;49.906;8.598;2023-03-14T11:38:50;10.90;99.90
6666;DHT22;3369;49.906;8.598;2023-03-14T11:41:27;10.90;99.90
6666;DHT22;3369;49.906;8.598;2023-03-14T11:44:00;10.90;99.90
6666;DHT22;3369;49.906;8.598;2023-03-14T11:46:37;10.90;99.90
6666;DHT22;3369;49.906;8.598;2023-03-14T11:52:32;11.00;99.90
6666;DHT22;3369;49.906;8.598;2023-03-14T11:55:31;11.00;99.90
6666;DHT22;3369;49.906;8.598;2023-03-14T11:58:19;11.10;99.90
6666;DHT22;3369;49.906;8.598;2023-03-14T12:00:47;11.10;99.90
6666;DHT22;3369;49.906;8.598;2023-03-14T12:03:42;11.20;99.90
6666;DHT22;3369;49.906;8.598;2023-03-14T12:06:56;11.20;99.90
6666;DHT22;3369;49.906;8.598;2023-03-14T12:09:26;11.10;99.90
6666;DHT22;3369;49.906;8.598;2023-03-14T12:12:02;11.00;99.90
6666;DHT22;3369;49.906;8.598;2023-03-14T12:14:36;10.80;99.90
6666;DHT22;3369;49.906;8.598;2023-03-14T12:17:17;10.80;99.90
6666;DHT22;3369;49.906;8.598;2023-03-14T12:19:44;10.80;99.90
6666;DHT22;3369;49.906;8.598;2023-03-14T12:22:27;10.70;99.90
6666;DHT22;3369;49.906;8.598;2023-03-14T12:25:18;10.70;99.90
6666;DHT22;3369;49.906;8.598;2023-03-14T12:30:33;10.50;99.90
6666;DHT22;3369;49.906;8.598;2023-03-14T12:35:57;10.50;99.90
6666;DHT22;3369;49.906;8.598;2023-03-14T12:38:44;10.50;99.90
6666;DHT22;3369;49.906;8.598;2023-03-14T12:43:44;10.60;99.90
6666;DHT22;3369;49.906;8.598;2023-03-14T12:46:46;10.60;99.90
6666;DHT22;3369;49.906;8.598;2023-03-14T12:49:12;10.70;99.90
6666;DHT22;3369;49.906;8.598;2023-03-14T12:51:40;10.70;99.90
6666;DHT22;3369;49.906;8.598;2023-03-14T12:54:31;10.70;99.90
6666;DHT22;3369;49.906;8.598;2023-03-14T12:59:57;10.80;99.90
6666;DHT22;3369;49.906;8.598;2023-03-14T13:02:37;10.90;99.90
6666;DHT22;3369;49.906;8.598;2023-03-14T13:05:16;11.00;99.90
6666;DHT22;3369;49.906;8.598;2023-03-14T13:29:32;10.40;99.90
6666;DHT22;3369;49.906;8.598;2023-03-14T13:32:17;10.30;99.90
6666;DHT22;3369;49.906;8.598;2023-03-14T13:34:45;10.10;99.90
6666;DHT22;3369;49.906;8.598;2023-03-14T13:37:18;10.00;99.90
6666;DHT22;3369;49.906;8.598;2023-03-14T13:39:52;9.90;99.90
6666;DHT22;3369;49.906;8.598;2023-03-14T13:42:21;9.80;99.90
6666;DHT22;3369;49.906;8.598;2023-03-14T13:44:52;9.80;99.90
6666;DHT22;3369;49.906;8.598;2023-03-14T13:47:20;9.70;99.90
6666;DHT22;3369;49.906;8.598;2023-03-14T13:49:49;9.60;99.90
6666;DHT22;3369;49.906;8.598;2023-03-14T13:52:37;9.60;99.90
6666;DHT22;3369;49.906;8.598;2023-03-14T13:55:04;9.50;99.90
6666;DHT22;3369;49.906;8.598;2023-03-14T13:57:48;9.40;99.90
6666;DHT22;3369;49.906;8.598;2023-03-14T14:00:19;9.40;99.90
6666;DHT22;3369;49.906;8.598;2023-03-14T14:02:45;9.40;99.90
6666;DHT22;3369;49.906;8.598;2023-03-14T14:05:12;9.40;99.90
6666;DHT22;3369;49.906;8.598;2023-03-14T14:07:39;9.40;99.90
6666;DHT22;3369;49.906;8.598;2023-03-14T14:10:05;9.40;99.90
6666;DHT22;3369;49.906;8.598;2023-03-14T14:12:38;9.40;99.90
6666;DHT22;3369;49.906;8.598;2023-03-14T14:15:13;9.50;99.90
6666;DHT22;3369;49.906;8.598;2023-03-14T14:17:43;9.50;99.90
6666;DHT22;3369;49.906;8.598;2023-03-14T14:20:30;9.70;99.90
6666;DHT22;3369;49.906;8.598;2023-03-14T14:23:04;9.80;99.90
6666;DHT22;3369;49.906;8.598;2023-03-14T14:25:33;10.00;99.90
6666;DHT22;3369;49.906;8.598;2023-03-14T14:27:59;10.20;99.90
6666;DHT22;3369;49.906;8.598;2023-03-14T14:30:39;10.30;99.90
6666;DHT22;3369;49.906;8.598;2023-03-14T14:33:17;10.40;99.90
6666;DHT22;3369;49.906;8.598;2023-03-14T14:35:50;10.50;99.90
6666;DHT22;3369;49.906;8.598;2023-03-14T14:38:17;10.50;99.90
6666;DHT22;3369;49.906;8.598;2023-03-14T14:40:47;10.40;99.90
6666;DHT22;3369;49.906;8.598;2023-03-14T14:43:21;10.30;99.90
6666;DHT22;3369;49.906;8.598;2023-03-14T14:45:50;10.20;99.90
6666;DHT22;3369;49.906;8.598;2023-03-14T14:48:22;10.10;99.90
6666;DHT22;3369;49.906;8.598;2023-03-14T14:53:42;9.80;99.90
6666;DHT22;3369;49.906;8.598;2023-03-14T14:56:19;9.60;99.90
6666;DHT22;3369;49.906;8.598;2023-03-14T14:58:48;9.50;99.90
6666;DHT22;3369;49.906;8.598;2023-03-14T15:03:43;9.30;99.90
6666;DHT22;3369;49.906;8.598;2023-03-14T15:06:12;9.30;99.90
6666;DHT22;3369;49.906;8.598;2023-03-14T15:08:38;9.20;99.90
6666;DHT22;3369;49.906;8.598;2023-03-14T15:11:04;9.10;99.90
6666;DHT22;3369;49.906;8.598;2023-03-14T15:13:30;9.10;99.90
6666;DHT22;3369;49.906;8.598;2023-03-14T15:15:56;9.10;99.90
6666;DHT22;3369;49.906;8.598;2023-03-14T15:18:24;9.00;99.90
6666;DHT22;3369;49.906;8.598;2023-03-14T15:20:51;9.10;99.90
6666;DHT22;3369;49.906;8.598;2023-03-14T15:23:19;9.10;99.90
6666;DHT22;3369;49.906;8.598;2023-03-14T15:25:48;9.10;99.90
6666;DHT22;3369;49.906;8.598;2023-03-14T15:28:28;9.00;99.90
6666;DHT22;3369;49.906;8.598;2023-03-14T15:30:57;9.00;99.90
6666;DHT22;3369;49.906;8.598;2023-03-14T15:33:25;8.90;99.90
6666;DHT22;3369;49.906;8.598;2023-03-14T15:35:51;8.80;99.90
6666;DHT22;3369;49.906;8.598;2023-03-14T15:38:21;8.80;99.90
6666;DHT22;3369;49.906;8.598;2023-03-14T15:40:49;8.70;99.90
6666;DHT22;3369;49.906;8.598;2023-03-14T15:43:16;8.50;99.90
6666;DHT22;3369;49.906;8.598;2023-03-14T15:45:41;8.50;99.90
6666;DHT22;3369;49.906;8.598;2023-03-14T15:48:17;8.40;99.90
6666;DHT22;3369;49.906;8.598;2023-03-14T15:50:56;8.30;99.90
6666;DHT22;3369;49.906;8.598;2023-03-14T15:53:31;8.30;99.90
6666;DHT22;3369;49.906;8.598;2023-03-14T15:55:57;8.30;99.90
6666;DHT22;3369;49.906;8.598;2023-03-14T15:58:32;8.30;99.90
6666;DHT22;3369;49.906;8.598;2023-03-14T16:01:00;8.40;99.90
6666;DHT22;3369;49.906;8.598;2023-03-14T16:03:27;8.50;99.90
6666;DHT22;3369;49.906;8.598;2023-03-14T16:05:53;8.50;99.90
6666;DHT22;3369;49.906;8.598;2023-03-14T16:08:19;8.50;99.90
6666;DHT22;3369;49.906;8.598;2023-03-14T16:10:45;8.50;99.90
6666;DHT22;3369;49.906;8.598;2023-03-14T16:13:11;8.50;99.90
6666;DHT22;3369;49.906;8.598;2023-03-14T16:15:37;8.50;99.90
6666;DHT22;3369;49.906;8.598;2023-03-14T16:18:03;8.50;99.90
6666;DHT22;3369;49.906;8.598;2023-03-14T16:20:28;8.50;99.90
6666;DHT22;3369;49.906;8.598;2023-03-14T16:22:54;8.40;99.90
6666;DHT22;3369;49.906;8.598;2023-03-14T16:25:20;8.40;99.90
6666;DHT22;3369;49.906;8.598;2023-03-14T16:27:46;8.30;99.90
6666;DHT22;3369;49.906;8.598;2023-03-14T16:30:15;8.30;99.90
6666;DHT22;3369;49.906;8.598;2023-03-14T16:32:41;8.10;99.90
6666;DHT22;3369;49.906;8.598;2023-03-14T16:35:07;8.00;99.90
6666;DHT22;3369;49.906;8.598;2023-03-14T16:37:34;8.00;99.90
6666;DHT22;3369;49.906;8.598;2023-03-14T16:39:59;7.90;99.90
6666;DHT22;3369;49.906;8.598;2023-03-14T16:42:25;7.90;99.90
6666;DHT22;3369;49.906;8.598;2023-03-14T16:44:50;7.80;99.90
6666;DHT22;3369;49.906;8.598;2023-03-14T16:47:16;7.80;99.90
6666;DHT22;3369;49.906;8.598;2023-03-14T16:49:42;7.80;99.90
6666;DHT22;3369;49.906;8.598;2023-03-14T16:52:08;7.70;99.90
6666;DHT22;3369;49.906;8.598;2023-03-14T16:54:37;7.70;99.90
6666;DHT22;3369;49.906;8.598;2023-03-14T16:57:03;7.60;99.90
6666;DHT22;3369;49.906;8.598;2023-03-14T16:59:28;7.60;99.90
6666;DHT22;3369;49.906;8.598;2023-03-14T17:01:55;7.60;99.90
6666;DHT22;3369;49.906;8.598;2023-03-14T17:04:22;7.50;99.90
6666;DHT22;3369;49.906;8.598;2023-03-14T17:06:48;7.50;99.90
6666;DHT22;3369;49.906;8.598;2023-03-14T17:09:14;7.40;99.90
6666;DHT22;3369;49.906;8.598;2023-03-14T17:11:39;7.40;99.90
6666;DHT22;3369;49.906;8.598;2023-03-14T17:14:05;7.30;99.90
6666;DHT22;3369;49.906;8.598;2023-03-14T17:16:31;7.30;99.90
6666;DHT22;3369;49.906;8.598;2023-03-14T17:18:57;7.20;99.90
6666;DHT22;3369;49.906;8.598;2023-03-14T17:21:23;7.20;99.90
6666;DHT22;3369;49.906;8.598;2023-03-14T17:23:49;7.10;99.90
6666;DHT22;3369;49.906;8.598;2023-03-14T17:26:15;7.00;99.90
6666;DHT22;3369;49.906;8.598;2023-03-14T17:28:42;7.00;99.90
6666;DHT22;3369;49.906;8.598;2023-03-14T17:31:13;6.90;99.90
6666;DHT22;3369;49.906;8.598;2023-03-14T17:33:40;6.80;99.90
6666;DHT22;3369;49.906;8.598;2023-03-14T17:36:06;6.80;99.90
6666;DHT22;3369;49.906;8.598;2023-03-14T17:38:36;6.70;99.90
6666;DHT22;3369;49.906;8.598;2023-03-14T17:41:03;6.70;99.90
6666;DHT22;3369;49.906;8.598;2023-03-14T17:43:29;6.70;99.90
6666;DHT22;3369;49.906;8.598;2023-03-14T17:46:00;6.60;99.90
6666;DHT22;3369;49.906;8.598;2023-03-14T17:48:26;6.60;99.90
6666;DHT22;3369;49.906;8.598;2023-03-14T17:50:52;6.60;99.90
6666;DHT22;3369;49.906;8.598;2023-03-14T17:53:20;6.50;99.90
6666;DHT22;3369;49.906;8.598;2023-03-14T17:55:47;6.50;99.90
6666;DHT22;3369;49.906;8.598;2023-03-14T17:58:13;6.40;99.90
6666;DHT22;3369;49.906;8.598;2023-03-14T18:00:39;6.40;99.90
6666;DHT22;3369;49.906;8.598;2023-03-14T18:03:05;6.30;99.90
6666;DHT22;3369;49.906;8.598;2023-03-14T18:05:31;6.30;99.90
6666;DHT22;3369;49.906;8.598;2023-03-14T18:07:57;6.30;99.90
6666;DHT22;3369;49.906;8.598;2023-03-14T18:10:23;6.20;99.90
6666;DHT22;3369;49.906;8.598;2023-03-14T18:12:49;6.20;99.90